Time;durP1;ratioP1;P1;durP2;ratioP2;P2;SDS_P1;SDS_P2;PMS_P1;PMS_P2;Temp;Humidity;BMP_temperature;BMP_pressure;BME280_temperature;BME280_humidity;BME280_pressure;Samples;Min_cycle;Max_cycle;Signal;HPM_P1;HPM_P2
2021/10/30 00:01:20;;;;;;;1013.15;217.57;;;3.50;99.90;;;;;;5012533;28;20029;-74
2021/10/30 00:03:45;;;;;;;371.73;105.68;;;3.70;99.90;;;;;;5012564;28;20037;-73
2021/10/30 00:06:11;;;;;;;516.05;134.05;;;3.40;99.90;;;;;;5013959;28;20030;-74
2021/10/30 00:08:37;;;;;;;293.15;95.78;;;3.60;99.90;;;;;;5017236;28;20025;-74
2021/10/30 00:11:02;;;;;;;427.70;111.20;;;3.70;99.90;;;;;;5017735;28;20429;-73
2021/10/30 00:13:29;;;;;;;845.05;170.05;;;3.80;99.90;;;;;;5014461;28;20030;-73
2021/10/30 00:15:55;;;;;;;416.08;122.93;;;3.70;99.90;;;;;;5013857;28;20105;-74
2021/10/30 00:18:21;;;;;;;921.50;198.93;;;3.70;99.90;;;;;;5013399;28;20053;-74
2021/10/30 00:20:46;;;;;;;337.67;108.28;;;3.80;99.90;;;;;;5013389;28;20069;-74
2021/10/30 00:23:12;;;;;;;904.03;190.75;;;3.60;99.90;;;;;;5016794;28;20040;-74
2021/10/30 00:25:37;;;;;;;1137.30;227.48;;;3.70;99.90;;;;;;5026641;28;20357;-74
2021/10/30 00:28:03;;;;;;;1231.95;268.90;;;3.50;99.90;;;;;;5013273;28;20037;-75
2021/10/30 00:30:29;;;;;;;1163.07;257.23;;;3.50;99.90;;;;;;5020078;28;20026;-75
2021/10/30 00:32:54;;;;;;;1039.75;205.93;;;3.60;99.90;;;;;;5014613;28;20084;-75
2021/10/30 00:35:20;;;;;;;1146.72;244.27;;;3.40;99.90;;;;;;5013517;28;20104;-75
2021/10/30 00:37:45;;;;;;;1093.93;239.52;;;3.50;99.90;;;;;;5013485;28;20038;-75
2021/10/30 00:40:12;;;;;;;1315.43;253.57;;;3.50;99.90;;;;;;5013210;28;20030;-76
2021/10/30 00:42:41;;;;;;;950.78;196.30;;;3.40;99.90;;;;;;5016718;28;20018;-76
2021/10/30 00:45:07;;;;;;;881.22;187.63;;;3.30;99.90;;;;;;5014600;28;20022;-76
2021/10/30 00:47:33;;;;;;;1040.55;229.60;;;3.30;99.90;;;;;;5011799;28;20523;-75
2021/10/30 00:50:00;;;;;;;1032.63;219.30;;;3.40;99.90;;;;;;5012989;28;20052;-75
2021/10/30 00:52:28;;;;;;;1043.20;235.50;;;3.40;99.90;;;;;;5014033;28;20025;-74
2021/10/30 00:54:57;;;;;;;652.30;160.95;;;3.30;99.90;;;;;;5013130;28;20452;-75
2021/10/30 00:57:25;;;;;;;998.65;240.73;;;3.30;99.90;;;;;;5011600;28;20034;-75
2021/10/30 00:59:51;;;;;;;1195.22;259.10;;;3.30;99.90;;;;;;5012891;28;20488;-75
2021/10/30 01:02:18;;;;;;;1104.72;258.75;;;3.40;99.90;;;;;;5013308;28;20030;-75
2021/10/30 01:04:44;;;;;;;704.83;188.63;;;3.40;99.90;;;;;;5012881;28;20024;-75
2021/10/30 01:07:09;;;;;;;1055.57;250.25;;;3.40;99.90;;;;;;5014928;28;20030;-75
2021/10/30 01:09:35;;;;;;;891.20;214.38;;;3.40;99.90;;;;;;5021010;28;20021;-75
2021/10/30 01:12:01;;;;;;;705.92;201.88;;;3.50;99.90;;;;;;5017978;28;20080;-74
2021/10/30 01:14:28;;;;;;;671.25;195.13;;;3.40;99.90;;;;;;5014981;28;20022;-76
2021/10/30 01:17:02;;;;;;;290.38;120.10;;;3.50;99.90;;;;;;5012607;28;20030;-76
2021/10/30 01:19:29;;;;;;;251.68;113.22;;;3.60;99.90;;;;;;5012308;28;20113;-76
2021/10/30 01:21:55;;;;;;;559.30;180.43;;;3.60;99.90;;;;;;5011278;28;20018;-76
2021/10/30 01:24:21;;;;;;;413.85;163.10;;;3.70;99.90;;;;;;5012786;28;20072;-76
2021/10/30 01:26:47;;;;;;;440.58;168.30;;;3.80;99.90;;;;;;5012784;28;20096;-76
2021/10/30 01:29:13;;;;;;;298.25;142.38;;;3.70;99.90;;;;;;5012673;28;20033;-75
2021/10/30 01:31:38;;;;;;;274.42;135.68;;;3.80;99.90;;;;;;5012512;28;20026;-76
2021/10/30 01:34:06;;;;;;;263.17;131.80;;;3.80;99.90;;;;;;5012233;28;20075;-74
2021/10/30 01:36:34;;;;;;;197.40;111.88;;;3.80;99.90;;;;;;5012253;28;20022;-74
2021/10/30 01:39:03;;;;;;;163.35;106.90;;;3.80;99.90;;;;;;5010917;28;20034;-74
2021/10/30 01:41:28;;;;;;;182.13;111.28;;;3.80;99.90;;;;;;5012092;28;20037;-76
2021/10/30 01:43:58;;;;;;;147.55;97.85;;;3.80;99.90;;;;;;5013035;28;20022;-76
2021/10/30 01:46:24;;;;;;;149.25;98.07;;;3.90;99.90;;;;;;5012261;28;20018;-76
2021/10/30 01:48:50;;;;;;;146.82;95.57;;;3.80;99.90;;;;;;5011119;28;20036;-75
2021/10/30 01:51:16;;;;;;;126.05;88.28;;;3.90;99.90;;;;;;5011972;28;20101;-75
2021/10/30 01:53:43;;;;;;;161.77;102.72;;;3.80;99.90;;;;;;5013544;28;20037;-76
2021/10/30 01:56:10;;;;;;;131.60;88.40;;;3.80;99.90;;;;;;5010844;28;20076;-75
2021/10/30 01:58:36;;;;;;;143.35;94.35;;;3.90;99.90;;;;;;5012333;28;20473;-76
2021/10/30 02:01:04;;;;;;;157.48;98.93;;;4.00;99.90;;;;;;5018248;28;20033;-76
2021/10/30 02:03:31;;;;;;;149.70;96.53;;;4.00;99.90;;;;;;5014943;28;20034;-76
2021/10/30 02:05:58;;;;;;;120.03;84.80;;;3.80;99.90;;;;;;5012184;28;20022;-76
2021/10/30 02:08:24;;;;;;;143.02;92.57;;;3.90;99.90;;;;;;5013404;28;20030;-76
2021/10/30 02:10:50;;;;;;;119.55;82.32;;;3.90;99.90;;;;;;5018950;28;20030;-76
2021/10/30 02:13:16;;;;;;;120.22;82.93;;;4.00;99.90;;;;;;5012547;28;20029;-76
2021/10/30 02:15:42;;;;;;;142.98;91.65;;;4.00;99.90;;;;;;5010603;28;20080;-76
2021/10/30 02:18:07;;;;;;;130.02;84.85;;;3.90;99.90;;;;;;5018854;28;20105;-76
2021/10/30 02:20:33;;;;;;;117.18;84.22;;;3.90;99.90;;;;;;5024611;28;20022;-76
2021/10/30 02:23:00;;;;;;;112.68;79.82;;;3.90;99.90;;;;;;5013646;28;20128;-76
2021/10/30 02:25:26;;;;;;;133.55;87.97;;;4.00;99.90;;;;;;5012706;28;20033;-76
2021/10/30 02:27:52;;;;;;;146.80;92.70;;;4.00;99.90;;;;;;5012975;28;20026;-76
2021/10/30 02:30:18;;;;;;;104.65;76.20;;;3.90;99.90;;;;;;5011576;28;20034;-77
2021/10/30 02:32:44;;;;;;;109.07;76.80;;;4.00;99.90;;;;;;5011360;28;20049;-76
2021/10/30 02:35:11;;;;;;;128.95;86.53;;;4.10;99.90;;;;;;5010395;28;20030;-76
2021/10/30 02:37:38;;;;;;;114.32;80.70;;;4.10;99.90;;;;;;5013751;28;20103;-76
2021/10/30 02:40:04;;;;;;;109.72;78.07;;;4.10;99.90;;;;;;5015604;28;20020;-75
2021/10/30 02:42:30;;;;;;;104.63;77.07;;;4.10;99.90;;;;;;5016148;28;20030;-75
2021/10/30 02:44:55;;;;;;;114.00;81.55;;;4.10;99.90;;;;;;5021166;28;20026;-76
2021/10/30 02:47:21;;;;;;;101.50;74.50;;;4.00;99.90;;;;;;5014092;28;20050;-75
2021/10/30 02:49:46;;;;;;;124.03;84.68;;;4.10;99.90;;;;;;5010418;28;20018;-74
2021/10/30 02:52:12;;;;;;;115.88;81.28;;;4.00;99.90;;;;;;5011977;28;20374;-75
2021/10/30 02:54:37;;;;;;;131.57;87.60;;;4.10;99.90;;;;;;5010780;28;20429;-74
2021/10/30 02:57:03;;;;;;;145.73;91.10;;;3.90;99.90;;;;;;5010733;28;20026;-75
2021/10/30 02:59:29;;;;;;;119.55;82.63;;;3.90;99.90;;;;;;5011952;28;20026;-75
2021/10/30 03:01:54;;;;;;;151.57;96.15;;;3.60;99.90;;;;;;5013984;28;20022;-75
2021/10/30 03:04:20;;;;;;;154.18;96.80;;;3.50;99.90;;;;;;5012965;28;20026;-75
2021/10/30 03:06:45;;;;;;;137.80;90.88;;;3.60;99.90;;;;;;5013400;28;20088;-75
2021/10/30 03:09:11;;;;;;;144.43;91.85;;;3.70;99.90;;;;;;5010163;28;20025;-76
2021/10/30 03:11:36;;;;;;;142.48;92.90;;;3.80;99.90;;;;;;5013231;28;20033;-76
2021/10/30 03:14:02;;;;;;;171.95;101.43;;;3.60;99.90;;;;;;5024871;28;20037;-76
2021/10/30 03:16:28;;;;;;;138.35;89.55;;;3.70;99.90;;;;;;5013594;28;20030;-75
2021/10/30 03:18:54;;;;;;;136.52;91.68;;;3.80;99.90;;;;;;5017182;28;20062;-75
2021/10/30 03:21:21;;;;;;;134.10;87.78;;;3.70;99.90;;;;;;5015269;28;20095;-76
2021/10/30 03:23:47;;;;;;;136.85;89.65;;;3.90;99.90;;;;;;5014845;28;20033;-76
2021/10/30 03:26:13;;;;;;;124.82;86.30;;;3.70;99.90;;;;;;5016346;28;20018;-75
2021/10/30 03:28:38;;;;;;;123.28;87.30;;;3.50;99.90;;;;;;5014813;28;20018;-76
2021/10/30 03:31:04;;;;;;;104.63;76.13;;;3.60;99.90;;;;;;5016603;28;20058;-75
2021/10/30 03:33:29;;;;;;;124.18;84.10;;;3.60;99.90;;;;;;5015006;28;20086;-75
2021/10/30 03:35:55;;;;;;;109.28;76.68;;;3.70;99.90;;;;;;5014823;28;20080;-74
2021/10/30 03:38:21;;;;;;;103.68;76.32;;;3.80;99.90;;;;;;5022998;28;20057;-74
2021/10/30 03:40:46;;;;;;;95.70;72.97;;;3.80;99.90;;;;;;5028799;28;20093;-75
2021/10/30 03:43:12;;;;;;;88.88;69.20;;;3.90;99.90;;;;;;5022410;28;20444;-75
2021/10/30 03:45:37;;;;;;;97.53;72.72;;;4.00;99.90;;;;;;5017345;28;20022;-75
2021/10/30 03:48:04;;;;;;;106.13;76.45;;;4.10;99.90;;;;;;5015003;28;20523;-75
2021/10/30 03:50:30;;;;;;;112.55;80.18;;;3.90;99.90;;;;;;5014198;28;20244;-74
2021/10/30 03:52:55;;;;;;;118.68;81.50;;;3.70;99.90;;;;;;5022576;28;20392;-74
2021/10/30 03:55:21;;;;;;;110.45;78.15;;;3.70;99.90;;;;;;5020781;28;20033;-75
2021/10/30 03:57:47;;;;;;;98.03;72.72;;;3.80;99.90;;;;;;5024344;28;20109;-75
2021/10/30 04:00:13;;;;;;;194.57;147.18;;;3.80;99.90;;;;;;5027363;28;20104;-74
2021/10/30 04:02:39;;;;;;;118.00;81.60;;;3.80;99.90;;;;;;5013957;28;20088;-74
2021/10/30 04:05:05;;;;;;;118.63;85.32;;;3.70;99.90;;;;;;5014481;28;20465;-74
2021/10/30 04:07:30;;;;;;;115.35;80.57;;;3.60;99.90;;;;;;5022176;28;20041;-74
2021/10/30 04:09:56;;;;;;;115.78;78.95;;;3.60;99.90;;;;;;5019060;28;20038;-76
2021/10/30 04:12:21;;;;;;;105.80;77.05;;;3.70;99.90;;;;;;5025744;28;20033;-78
2021/10/30 04:14:47;;;;;;;100.80;72.80;;;3.60;99.90;;;;;;5027020;28;20035;-74
2021/10/30 04:17:12;;;;;;;101.43;75.40;;;3.90;99.90;;;;;;5006236;28;20421;-74
2021/10/30 04:19:38;;;;;;;106.85;74.40;;;3.80;99.90;;;;;;5022409;28;20090;-75
2021/10/30 04:22:04;;;;;;;112.15;79.70;;;3.60;99.90;;;;;;5025260;28;20384;-74
2021/10/30 04:24:29;;;;;;;106.95;74.80;;;3.50;99.90;;;;;;5028129;28;20029;-74
2021/10/30 04:26:55;;;;;;;104.63;74.32;;;3.50;99.90;;;;;;5031662;28;20160;-74
2021/10/30 04:29:20;;;;;;;107.93;75.93;;;3.60;99.90;;;;;;5025217;28;20057;-74
2021/10/30 04:31:48;;;;;;;103.95;74.90;;;3.80;99.90;;;;;;5012531;28;20029;-75
2021/10/30 04:34:22;;;;;;;110.03;75.93;;;3.60;99.90;;;;;;5014648;28;20037;-75
2021/10/30 04:36:48;;;;;;;98.50;74.72;;;3.60;99.90;;;;;;5024595;28;20477;-75
2021/10/30 04:39:14;;;;;;;102.18;73.68;;;3.50;99.90;;;;;;5013200;28;20036;-74
2021/10/30 04:41:42;;;;;;;103.22;73.70;;;3.50;99.90;;;;;;5020830;28;20119;-75
2021/10/30 04:44:08;;;;;;;104.45;73.78;;;3.50;99.90;;;;;;5017149;28;20411;-74
2021/10/30 04:46:34;;;;;;;96.38;69.57;;;3.50;99.90;;;;;;5022451;28;20022;-74
2021/10/30 04:49:00;;;;;;;106.80;75.65;;;3.40;99.90;;;;;;5016965;28;20029;-74
2021/10/30 04:51:25;;;;;;;107.80;76.45;;;3.40;99.90;;;;;;5013171;28;20029;-74
2021/10/30 04:53:51;;;;;;;102.60;73.03;;;3.40;99.90;;;;;;5026591;28;20030;-75
2021/10/30 04:56:17;;;;;;;104.80;74.78;;;3.50;99.90;;;;;;5023242;28;20483;-74
2021/10/30 04:58:44;;;;;;;94.68;70.57;;;3.50;99.90;;;;;;5018166;28;20072;-74
2021/10/30 05:01:18;;;;;;;94.03;70.63;;;3.50;99.90;;;;;;5023129;28;20040;-75
2021/10/30 05:03:45;;;;;;;86.30;66.43;;;3.50;99.90;;;;;;5026449;28;20022;-77
2021/10/30 05:06:11;;;;;;;88.13;67.22;;;3.60;99.90;;;;;;5024135;28;20026;-76
2021/10/30 05:08:37;;;;;;;90.47;67.68;;;3.30;99.90;;;;;;5019283;28;20026;-77
2021/10/30 05:11:03;;;;;;;89.43;65.75;;;3.40;99.90;;;;;;5021347;28;20473;-76
2021/10/30 05:13:29;;;;;;;83.93;64.28;;;3.20;99.90;;;;;;5024845;28;20328;-76
2021/10/30 05:15:55;;;;;;;76.78;59.03;;;3.20;99.90;;;;;;5022746;28;20475;-76
2021/10/30 05:18:21;;;;;;;177.95;69.93;;;3.20;99.90;;;;;;5017937;28;20034;-76
2021/10/30 05:20:47;;;;;;;220.88;76.18;;;3.10;99.90;;;;;;5021299;28;20029;-75
2021/10/30 05:23:13;;;;;;;237.68;78.75;;;2.80;99.90;;;;;;5026094;28;20024;-76
2021/10/30 05:25:38;;;;;;;290.45;81.60;;;2.70;99.90;;;;;;5012728;28;20105;-75
2021/10/30 05:28:04;;;;;;;162.95;72.13;;;2.60;99.90;;;;;;5024671;28;20115;-77
2021/10/30 05:30:29;;;;;;;112.05;66.32;;;2.60;99.90;;;;;;5021654;28;20499;-76
2021/10/30 05:32:55;;;;;;;72.97;56.65;;;2.60;99.90;;;;;;5017563;28;20183;-76
2021/10/30 05:35:20;;;;;;;79.90;53.15;;;2.60;99.90;;;;;;5021768;28;20040;-75
2021/10/30 05:37:46;;;;;;;94.53;57.63;;;2.50;99.90;;;;;;5024852;28;20037;-75
2021/10/30 05:40:12;;;;;;;164.35;65.85;;;2.50;99.90;;;;;;5012353;28;20017;-75
2021/10/30 05:42:41;;;;;;;204.45;57.13;;;2.50;99.90;;;;;;5025438;28;20053;-75
2021/10/30 05:45:07;;;;;;;138.10;61.70;;;2.60;99.90;;;;;;5012467;28;20014;-75
2021/10/30 05:47:35;;;;;;;249.30;66.35;;;2.40;99.90;;;;;;5025572;28;20057;-75
2021/10/30 05:50:02;;;;;;;219.32;64.90;;;2.30;99.90;;;;;;5012205;28;20108;-75
2021/10/30 05:52:27;;;;;;;192.48;52.88;;;2.30;99.90;;;;;;5024028;28;20054;-75
2021/10/30 05:54:53;;;;;;;175.02;61.88;;;2.20;99.90;;;;;;5023101;28;20412;-75
2021/10/30 05:57:18;;;;;;;291.65;72.05;;;2.40;99.90;;;;;;5017345;28;20067;-75
2021/10/30 05:59:44;;;;;;;511.58;94.00;;;2.00;99.90;;;;;;5019593;28;20026;-75
2021/10/30 06:02:12;;;;;;;205.43;60.40;;;2.20;99.90;;;;;;5025348;28;20428;-75
2021/10/30 06:04:39;;;;;;;176.60;61.95;;;2.10;99.90;;;;;;5012016;28;20081;-75
2021/10/30 06:07:05;;;;;;;232.95;74.70;;;2.20;99.90;;;;;;5015025;28;20373;-75
2021/10/30 06:09:31;;;;;;;115.57;71.13;;;2.10;99.90;;;;;;5020845;28;20026;-75
2021/10/30 06:11:57;;;;;;;148.07;61.45;;;2.30;99.90;;;;;;5025177;28;20075;-75
2021/10/30 06:14:22;;;;;;;477.00;128.60;;;2.10;99.90;;;;;;5022355;28;20083;-75
2021/10/30 06:16:48;;;;;;;171.68;73.85;;;1.90;99.90;;;;;;5018441;28;20049;-75
2021/10/30 06:19:14;;;;;;;201.18;87.57;;;1.80;99.90;;;;;;5021200;28;20443;-75
2021/10/30 06:21:39;;;;;;;93.05;70.60;;;1.90;99.90;;;;;;5025025;28;20127;-75
2021/10/30 06:24:06;;;;;;;70.30;57.92;;;1.90;99.90;;;;;;5022353;28;20045;-75
2021/10/30 06:26:31;;;;;;;62.85;55.78;;;1.80;99.90;;;;;;5018781;28;20494;-74
2021/10/30 06:28:57;;;;;;;82.82;67.82;;;1.90;99.90;;;;;;5021773;28;20396;-75
2021/10/30 06:31:23;;;;;;;68.07;59.63;;;1.90;99.90;;;;;;5024885;28;20113;-74
2021/10/30 06:33:49;;;;;;;90.75;72.60;;;1.90;99.90;;;;;;5020936;28;20060;-74
2021/10/30 06:36:15;;;;;;;83.13;65.13;;;2.00;99.90;;;;;;5015089;28;20029;-74
2021/10/30 06:38:40;;;;;;;147.00;88.63;;;2.10;99.90;;;;;;5010374;28;20083;-74
2021/10/30 06:41:08;;;;;;;115.22;68.00;;;2.10;99.90;;;;;;5011541;28;20037;-73
2021/10/30 06:43:34;;;;;;;353.05;105.00;;;2.10;99.90;;;;;;5021744;28;20026;-77
2021/10/30 06:46:00;;;;;;;292.95;87.80;;;2.20;99.90;;;;;;5013571;28;20046;-73
2021/10/30 06:48:25;;;;;;;107.53;68.95;;;2.40;99.90;;;;;;5011708;28;20064;-74
2021/10/30 06:50:53;;;;;;;73.38;59.67;;;2.50;99.90;;;;;;5019743;28;20499;-75
2021/10/30 06:53:19;;;;;;;86.00;67.13;;;2.60;99.90;;;;;;5022657;28;20159;-74
2021/10/30 06:55:48;;;;;;;84.30;61.70;;;2.80;99.90;;;;;;5028769;28;20073;-74
2021/10/30 06:58:14;;;;;;;94.25;67.30;;;2.80;99.90;;;;;;5015703;28;20056;-74
2021/10/30 07:00:41;;;;;;;95.20;68.38;;;2.90;99.90;;;;;;5028295;28;20105;-75
2021/10/30 07:03:08;;;;;;;88.53;63.83;;;2.90;99.90;;;;;;5027246;28;20034;-74
2021/10/30 07:05:34;;;;;;;99.32;70.32;;;2.80;99.90;;;;;;5021828;28;20076;-75
2021/10/30 07:07:59;;;;;;;75.97;59.83;;;2.80;99.90;;;;;;5021823;28;20030;-75
2021/10/30 07:10:25;;;;;;;82.90;63.25;;;2.90;99.90;;;;;;5028353;28;20077;-74
2021/10/30 07:12:50;;;;;;;85.72;64.00;;;3.00;99.90;;;;;;5026988;28;20029;-74
2021/10/30 07:15:16;;;;;;;91.40;65.78;;;3.10;99.90;;;;;;5021615;28;20103;-74
2021/10/30 07:17:42;;;;;;;94.57;66.10;;;3.10;99.90;;;;;;5023212;28;20022;-74
2021/10/30 07:20:08;;;;;;;97.80;68.43;;;3.10;99.90;;;;;;5031918;28;20030;-75
2021/10/30 07:22:45;;;;;;;86.15;62.42;;;3.10;99.90;;;;;;5022931;28;20022;-74
2021/10/30 07:25:12;;;;;;;81.80;60.38;;;3.00;99.90;;;;;;5008392;28;20083;-74
2021/10/30 07:27:38;;;;;;;77.93;59.28;;;3.10;99.90;;;;;;5021368;28;20475;-74
2021/10/30 07:30:05;;;;;;;84.82;62.42;;;3.20;99.90;;;;;;5033406;28;20476;-74
2021/10/30 07:32:31;;;;;;;77.63;58.60;;;3.20;99.90;;;;;;5020798;28;20034;-74
2021/10/30 07:34:56;;;;;;;77.47;59.20;;;3.10;99.90;;;;;;5022061;28;20072;-74
2021/10/30 07:37:22;;;;;;;77.10;58.95;;;3.20;99.90;;;;;;5021042;28;20080;-74
2021/10/30 07:39:47;;;;;;;78.55;59.92;;;3.30;99.90;;;;;;5027274;28;20031;-74
2021/10/30 07:42:13;;;;;;;67.82;54.95;;;3.30;99.90;;;;;;5021194;28;20898;-74
2021/10/30 07:44:40;;;;;;;82.80;62.15;;;3.30;99.90;;;;;;5025968;28;20034;-74
2021/10/30 07:47:07;;;;;;;74.90;58.63;;;3.50;99.90;;;;;;5026720;28;20108;-74
2021/10/30 07:49:32;;;;;;;72.95;58.70;;;3.60;99.90;;;;;;5022191;28;20476;-74
2021/10/30 07:51:59;;;;;;;60.97;50.60;;;3.80;99.90;;;;;;5019738;28;20036;-74
2021/10/30 07:54:24;;;;;;;70.78;56.95;;;4.00;99.90;;;;;;5033348;28;20458;-74
2021/10/30 07:56:50;;;;;;;75.00;57.85;;;4.00;99.90;;;;;;5020894;28;20036;-74
2021/10/30 07:59:16;;;;;;;73.57;57.97;;;4.00;99.90;;;;;;5024942;28;20079;-75
2021/10/30 08:01:42;;;;;;;72.20;56.90;;;4.10;99.90;;;;;;5025014;28;20029;-74
2021/10/30 08:04:07;;;;;;;68.72;54.55;;;4.20;99.90;;;;;;5020578;28;20026;-74
2021/10/30 08:06:33;;;;;;;71.78;57.95;;;4.30;99.90;;;;;;5019972;28;20444;-74
2021/10/30 08:08:58;;;;;;;71.07;55.63;;;4.40;99.90;;;;;;5021597;28;20033;-76
2021/10/30 08:11:24;;;;;;;70.20;55.60;;;4.60;99.90;;;;;;5020359;28;20132;-74
2021/10/30 08:13:49;;;;;;;67.30;53.67;;;4.60;99.90;;;;;;5026681;28;20459;-74
2021/10/30 08:16:15;;;;;;;71.45;56.58;;;4.80;99.90;;;;;;5014793;28;20135;-75
2021/10/30 08:18:40;;;;;;;69.45;53.88;;;4.70;99.90;;;;;;5026289;28;20396;-74
2021/10/30 08:21:06;;;;;;;66.72;53.58;;;4.50;99.90;;;;;;5027036;28;20163;-75
2021/10/30 08:23:31;;;;;;;63.65;53.15;;;4.50;99.90;;;;;;5012564;28;20026;-74
2021/10/30 08:25:57;;;;;;;63.35;52.58;;;4.60;99.90;;;;;;5027715;28;20032;-72
2021/10/30 08:28:22;;;;;;;60.17;50.70;;;4.60;99.90;;;;;;5021592;28;20470;-75
2021/10/30 08:30:48;;;;;;;63.25;49.40;;;4.80;99.90;;;;;;5025618;28;20022;-75
2021/10/30 08:33:14;;;;;;;60.40;48.53;;;4.70;99.90;;;;;;5020811;28;20021;-75
2021/10/30 08:35:40;;;;;;;57.08;46.17;;;4.80;99.90;;;;;;5020048;28;20022;-75
2021/10/30 08:38:09;;;;;;;55.97;46.10;;;4.90;99.90;;;;;;5025146;28;20405;-75
2021/10/30 08:40:37;;;;;;;55.72;47.42;;;4.90;99.90;;;;;;5027180;28;20021;-75
2021/10/30 08:43:02;;;;;;;56.95;46.97;;;4.90;99.90;;;;;;5007365;28;20121;-75
2021/10/30 08:45:32;;;;;;;57.03;47.42;;;5.10;99.90;;;;;;5019893;28;20054;-75
2021/10/30 08:48:00;;;;;;;53.33;45.72;;;5.20;99.90;;;;;;5007766;28;20049;-74
2021/10/30 08:50:26;;;;;;;53.30;43.70;;;5.30;99.90;;;;;;5020047;28;20054;-75
2021/10/30 08:52:51;;;;;;;54.35;43.47;;;5.40;99.90;;;;;;5025387;28;20061;-75
2021/10/30 08:55:17;;;;;;;49.28;42.13;;;5.60;99.90;;;;;;5013268;28;20061;-75
2021/10/30 08:57:42;;;;;;;52.17;42.60;;;5.60;99.90;;;;;;5020600;28;20029;-75
2021/10/30 09:00:25;;;;;;;53.25;44.45;;;5.60;99.90;;;;;;5019779;28;20025;-75
2021/10/30 09:03:04;;;;;;;52.42;42.65;;;5.70;99.90;;;;;;5023302;28;20522;-75
2021/10/30 09:05:31;;;;;;;51.28;43.85;;;5.80;99.90;;;;;;5026419;28;20451;-75
2021/10/30 09:07:58;;;;;;;50.17;41.30;;;5.90;99.90;;;;;;5024792;28;20037;-75
2021/10/30 09:10:37;;;;;;;48.03;39.88;;;6.00;99.90;;;;;;5019496;28;20029;-75
2021/10/30 09:13:11;;;;;;;48.38;39.72;;;5.90;99.90;;;;;;5019177;28;20092;-75
2021/10/30 09:15:41;;;;;;;45.65;39.22;;;6.10;99.90;;;;;;5020924;28;20487;-75
2021/10/30 09:18:23;;;;;;;45.00;39.65;;;6.20;99.90;;;;;;5019138;28;20030;-75
2021/10/30 09:20:51;;;;;;;45.25;37.78;;;6.40;99.90;;;;;;5021660;28;20512;-75
2021/10/30 09:23:20;;;;;;;46.80;39.55;;;6.40;99.90;;;;;;5030341;28;20101;-75
2021/10/30 09:26:01;;;;;;;47.80;38.72;;;6.50;99.90;;;;;;5021408;28;20018;-75
2021/10/30 09:28:30;;;;;;;42.20;36.92;;;6.60;99.90;;;;;;5006993;28;20033;-75
2021/10/30 09:31:01;;;;;;;44.67;37.65;;;6.60;99.90;;;;;;5021244;28;20097;-76
2021/10/30 09:33:30;;;;;;;42.40;36.33;;;6.60;99.90;;;;;;5024807;28;20109;-75
2021/10/30 09:35:56;;;;;;;42.63;36.67;;;6.80;99.90;;;;;;5024521;28;20148;-75
2021/10/30 09:38:21;;;;;;;40.92;35.25;;;6.80;99.90;;;;;;5017889;28;20518;-75
2021/10/30 09:40:47;;;;;;;42.35;35.70;;;7.00;99.90;;;;;;5013988;28;20050;-75
2021/10/30 09:43:18;;;;;;;42.97;35.50;;;7.10;99.90;;;;;;5023753;28;20416;-75
2021/10/30 09:45:52;;;;;;;45.90;37.05;;;7.00;99.90;;;;;;5025601;28;20067;-75
2021/10/30 09:48:26;;;;;;;44.03;37.85;;;7.00;99.90;;;;;;5022805;28;20049;-75
2021/10/30 09:50:55;;;;;;;44.08;37.50;;;7.00;99.90;;;;;;5018762;28;20084;-75
2021/10/30 09:53:34;;;;;;;45.83;37.17;;;7.00;99.90;;;;;;5018407;28;20030;-75
2021/10/30 09:56:08;;;;;;;44.10;36.72;;;7.10;99.90;;;;;;5019130;28;20095;-74
2021/10/30 09:58:42;;;;;;;49.53;40.42;;;7.20;99.90;;;;;;5018709;28;20072;-75
2021/10/30 10:01:20;;;;;;;48.88;40.00;;;7.20;99.90;;;;;;5022894;28;20046;-75
2021/10/30 10:03:48;;;;;;;47.60;39.22;;;7.20;99.90;;;;;;5024120;28;20057;-75
2021/10/30 10:06:17;;;;;;;45.20;39.28;;;7.10;99.90;;;;;;5022791;28;20017;-75
2021/10/30 10:08:45;;;;;;;46.88;39.83;;;7.00;99.90;;;;;;5018394;28;20028;-75
2021/10/30 10:11:13;;;;;;;48.55;39.17;;;7.20;99.90;;;;;;5020740;28;20038;-75
2021/10/30 10:13:41;;;;;;;45.45;38.80;;;7.10;99.90;;;;;;5025441;28;20033;-75
2021/10/30 10:16:13;;;;;;;44.05;37.35;;;7.20;99.90;;;;;;5023594;28;20025;-75
2021/10/30 10:18:40;;;;;;;44.47;36.88;;;7.20;99.90;;;;;;5018342;28;20030;-75
2021/10/30 10:21:11;;;;;;;43.30;35.85;;;7.30;99.90;;;;;;5018566;28;20030;-75
2021/10/30 10:23:37;;;;;;;42.33;36.47;;;7.30;99.90;;;;;;5024840;28;20551;-75
2021/10/30 10:26:02;;;;;;;45.70;37.72;;;7.50;99.90;;;;;;5025019;28;20032;-75
2021/10/30 10:28:33;;;;;;;40.67;35.78;;;7.60;99.90;;;;;;5018251;28;20029;-75
2021/10/30 10:31:10;;;;;;;43.92;37.65;;;7.90;99.90;;;;;;5018143;28;20030;-75
2021/10/30 10:33:37;;;;;;;45.03;36.95;;;8.00;99.90;;;;;;5021960;28;20100;-75
2021/10/30 10:36:20;;;;;;;42.80;37.33;;;7.90;99.90;;;;;;5025392;28;20021;-75
2021/10/30 10:38:58;;;;;;;45.45;39.40;;;7.90;99.90;;;;;;5016548;28;20569;-75
2021/10/30 10:41:44;;;;;;;43.95;38.05;;;7.80;99.90;;;;;;5004075;28;20673;-75
2021/10/30 10:44:11;;;;;;;;;;;7.80;99.90;;;;;;5014465;28;20022;-75
2021/10/30 10:46:50;;;;;;;47.30;39.25;;;7.80;99.90;;;;;;5017194;28;19905;-75
2021/10/30 10:55:01;;;;;;;45.47;39.03;;;7.80;99.90;;;;;;5011043;28;20026;-74
2021/10/30 10:57:27;;;;;;;48.63;40.50;;;8.00;99.90;;;;;;5018115;28;20026;-75
2021/10/30 11:00:18;;;;;;;47.90;39.40;;;8.10;99.90;;;;;;5019704;28;20033;-75
2021/10/30 11:02:50;;;;;;;44.03;37.55;;;8.30;99.90;;;;;;5006944;28;20067;-75
2021/10/30 11:05:20;;;;;;;44.53;37.70;;;8.20;99.90;;;;;;5018154;28;20033;-75
2021/10/30 11:07:49;;;;;;;45.08;36.35;;;8.30;99.90;;;;;;5021868;28;20503;-75
2021/10/30 11:10:20;;;;;;;46.13;37.72;;;8.40;99.90;;;;;;5024600;28;20488;-76
2021/10/30 11:13:10;;;;;;;46.78;39.05;;;8.50;99.90;;;;;;5022184;28;20056;-75
2021/10/30 11:15:44;;;;;;;42.08;37.08;;;8.60;99.90;;;;;;5006871;28;20056;-75
2021/10/30 11:18:25;;;;;;;41.88;36.63;;;8.60;99.90;;;;;;5016672;28;20061;-75
2021/10/30 11:21:19;;;;;;;40.28;35.03;;;8.70;99.90;;;;;;5020339;28;20453;-75
2021/10/30 11:23:47;;;;;;;41.25;35.53;;;8.90;99.90;;;;;;5006799;28;20358;-75
2021/10/30 11:26:31;;;;;;;43.00;35.72;;;9.10;99.90;;;;;;5018026;28;20029;-75
2021/10/30 11:29:09;;;;;;;41.28;35.53;;;9.10;99.90;;;;;;5021009;28;20510;-75
2021/10/30 11:31:34;;;;;;;39.20;34.85;;;9.20;99.90;;;;;;5024417;28;20022;-75
2021/10/30 11:34:03;;;;;;;39.17;34.28;;;9.30;99.90;;;;;;5023033;28;20392;-74
2021/10/30 11:36:31;;;;;;;40.75;33.70;;;9.40;99.90;;;;;;5019156;28;20373;-75
2021/10/30 11:38:59;;;;;;;38.60;33.53;;;9.60;99.90;;;;;;5020729;28;20433;-75
2021/10/30 11:41:29;;;;;;;41.17;34.35;;;9.70;99.90;;;;;;5019903;28;20041;-75
2021/10/30 11:44:05;;;;;;;38.80;33.42;;;9.80;99.90;;;;;;5020615;28;20024;-75
2021/10/30 11:46:32;;;;;;;41.17;33.45;;;9.90;99.90;;;;;;5023870;28;20040;-75
2021/10/30 11:48:59;;;;;;;41.10;34.03;;;9.70;99.90;;;;;;5021058;28;20037;-75
2021/10/30 11:51:31;;;;;;;38.20;32.90;;;9.80;99.90;;;;;;5024746;28;20037;-75
2021/10/30 11:53:57;;;;;;;39.92;33.50;;;9.80;99.90;;;;;;5029965;28;20026;-75
2021/10/30 11:56:29;;;;;;;41.85;34.00;;;9.80;99.90;;;;;;5023102;28;20096;-75
2021/10/30 11:58:56;;;;;;;41.85;35.72;;;9.80;99.90;;;;;;5027161;28;20466;-75
2021/10/30 12:01:29;;;;;;;38.08;33.30;;;9.90;99.90;;;;;;5018559;28;20507;-75
2021/10/30 12:03:58;;;;;;;40.80;32.45;;;9.90;99.90;;;;;;5016195;28;20393;-75
2021/10/30 12:06:25;;;;;;;40.13;33.60;;;9.90;99.90;;;;;;5024600;28;20438;-75
2021/10/30 12:08:52;;;;;;;37.85;31.80;;;9.90;99.90;;;;;;5030782;28;20556;-75
2021/10/30 12:11:19;;;;;;;38.95;32.50;;;10.00;99.90;;;;;;5014023;28;20041;-75
2021/10/30 12:13:46;;;;;;;37.05;31.70;;;10.00;99.90;;;;;;5026056;28;20026;-75
2021/10/30 12:16:12;;;;;;;37.63;31.17;;;10.20;99.90;;;;;;5025723;28;20037;-75
2021/10/30 12:18:38;;;;;;;38.95;31.48;;;10.10;99.90;;;;;;5020423;28;20025;-75
2021/10/30 12:21:04;;;;;;;36.70;30.67;;;10.10;99.90;;;;;;5020517;28;20541;-75
2021/10/30 12:23:30;;;;;;;34.47;29.55;;;10.10;99.90;;;;;;5027220;28;20062;-73
2021/10/30 12:26:04;;;;;;;37.33;30.65;;;10.10;99.90;;;;;;5025339;28;20120;-75
2021/10/30 12:28:36;;;;;;;38.40;32.17;;;10.00;99.90;;;;;;5001615;28;20488;-74
2021/10/30 12:31:05;;;;;;;40.22;33.90;;;10.10;99.90;;;;;;5012140;28;20037;-74
2021/10/30 12:33:35;;;;;;;41.97;34.63;;;9.90;99.90;;;;;;5012035;28;20026;-74
2021/10/30 12:36:00;;;;;;;40.15;34.22;;;9.70;99.90;;;;;;5013140;28;20105;-74
2021/10/30 12:38:26;;;;;;;42.85;35.67;;;9.70;99.90;;;;;;5012095;28;20147;-74